createdAt,value
2023-01-05T00:03:34.548Z,11.10
2023-01-05T00:07:37.454Z,11.10
2023-01-05T00:11:59.363Z,11.10
2023-01-05T00:16:19.706Z,11.10
2023-01-05T00:20:40.502Z,11.10
2023-01-05T00:24:43.384Z,11.10
2023-01-05T00:28:47.555Z,11.10
2023-01-05T00:32:51.098Z,11.10
2023-01-05T00:36:54.086Z,11.10
2023-01-05T00:40:57.095Z,11.00
2023-01-05T00:45:01.525Z,11.00
2023-01-05T00:49:04.367Z,11.00
2023-01-05T00:53:07.179Z,11.00
2023-01-05T00:57:11.960Z,11.00
2023-01-05T01:01:16.216Z,11.00
2023-01-05T01:05:19.240Z,11.00
2023-01-05T01:09:22.030Z,11.00
2023-01-05T01:13:24.974Z,11.00
2023-01-05T01:17:29.230Z,11.00
2023-01-05T01:21:32.069Z,11.10
2023-01-05T01:25:34.893Z,11.00
2023-01-05T01:29:37.684Z,11.00
2023-01-05T01:33:41.955Z,11.00
2023-01-05T01:37:44.767Z,11.00
2023-01-05T01:41:47.872Z,11.00
2023-01-05T01:45:50.697Z,11.00
2023-01-05T01:49:56.176Z,10.90
2023-01-05T01:54:00.513Z,10.90
2023-01-05T01:58:07.325Z,10.90
2023-01-05T02:02:10.515Z,10.90
2023-01-05T02:06:15.493Z,10.90
2023-01-05T02:10:25.624Z,10.90
2023-01-05T02:14:38.244Z,10.90
2023-01-05T02:18:52.823Z,10.90
2023-01-05T02:23:32.917Z,10.90
2023-01-05T02:27:46.976Z,10.90
2023-01-05T02:31:55.979Z,10.90
2023-01-05T02:36:04.439Z,10.90
2023-01-05T02:40:14.234Z,10.90
2023-01-05T02:44:18.364Z,10.90
2023-01-05T02:48:23.091Z,10.90
2023-01-05T02:52:27.251Z,10.80
2023-01-05T02:56:35.213Z,10.80
2023-01-05T03:00:42.569Z,10.70
2023-01-05T03:04:53.644Z,10.70
2023-01-05T03:09:00.107Z,10.70
2023-01-05T03:13:25.677Z,10.70
2023-01-05T03:17:34.282Z,10.70
2023-01-05T03:21:56.423Z,10.70
2023-01-05T03:26:17.912Z,10.60
2023-01-05T03:30:40.276Z,10.70
2023-01-05T03:35:05.670Z,10.60
2023-01-05T03:39:13.048Z,10.60
2023-01-05T03:43:16.464Z,10.60
2023-01-05T03:47:19.307Z,10.60
2023-01-05T03:51:22.159Z,10.60
2023-01-05T03:55:26.327Z,10.60
2023-01-05T03:59:29.236Z,10.60
2023-01-05T04:03:32.590Z,10.60
2023-01-05T04:07:35.520Z,10.60
2023-01-05T04:11:39.725Z,10.60
2023-01-05T04:15:42.821Z,10.60
2023-01-05T04:19:45.721Z,10.60
2023-01-05T04:23:48.552Z,10.60
2023-01-05T04:27:52.692Z,10.50
2023-01-05T04:31:55.529Z,10.50
2023-01-05T04:35:58.313Z,10.50
2023-01-05T04:40:01.119Z,10.50
2023-01-05T04:44:05.468Z,10.50
2023-01-05T04:48:08.499Z,10.50
2023-01-05T04:52:11.326Z,10.50
2023-01-05T04:56:14.123Z,10.40
2023-01-05T05:00:18.600Z,10.40
2023-01-05T05:04:21.438Z,10.40
2023-01-05T05:08:24.307Z,10.40
2023-01-05T05:12:27.123Z,10.40
2023-01-05T05:16:31.331Z,10.30
2023-01-05T05:20:34.249Z,10.30
2023-01-05T05:24:37.053Z,10.30
2023-01-05T05:28:40.018Z,10.30
2023-01-05T05:32:44.676Z,10.30
2023-01-05T05:36:47.569Z,10.30
2023-01-05T05:40:50.680Z,10.30
2023-01-05T05:44:53.534Z,10.30
2023-01-05T05:48:58.182Z,10.30
2023-01-05T05:53:01.057Z,10.30
2023-01-05T05:57:03.886Z,10.30
2023-01-05T06:01:07.083Z,10.30
2023-01-05T06:05:11.445Z,10.30
2023-01-05T06:09:14.286Z,10.30
2023-01-05T06:13:17.188Z,10.30
2023-01-05T06:17:20.034Z,10.30
2023-01-05T06:21:24.266Z,10.30
2023-01-05T06:25:27.113Z,10.30
2023-01-05T06:29:29.944Z,10.30
2023-01-05T06:33:32.863Z,10.30
2023-01-05T06:37:37.016Z,10.30
2023-01-05T06:41:39.810Z,10.30
2023-01-05T06:45:42.653Z,10.30
2023-01-05T06:49:45.552Z,10.30
2023-01-05T06:53:49.761Z,10.30
2023-01-05T06:57:58.700Z,10.30
2023-01-05T07:02:03.511Z,10.30
2023-01-05T07:06:11.384Z,10.30
2023-01-05T07:10:19.120Z,10.30
2023-01-05T07:14:21.928Z,10.30
2023-01-05T07:18:24.731Z,10.30
2023-01-05T07:22:28.219Z,10.30
2023-01-05T07:35:10.702Z,10.30
2023-01-05T07:39:13.576Z,10.30
2023-01-05T07:43:16.913Z,10.30
2023-01-05T07:47:19.809Z,10.30
2023-01-05T07:51:24.007Z,10.30
2023-01-05T07:55:26.873Z,10.30
2023-01-05T07:59:29.684Z,10.30
2023-01-05T08:03:32.668Z,10.30
2023-01-05T08:07:37.712Z,10.30
2023-01-05T08:11:40.509Z,10.30
2023-01-05T08:15:49.073Z,10.30
2023-01-05T08:19:54.086Z,10.30
2023-01-05T08:23:59.780Z,10.40
2023-01-05T08:28:02.613Z,10.40
2023-01-05T08:32:05.573Z,10.40
2023-01-05T08:36:09.246Z,10.40
2023-01-05T08:40:13.732Z,10.40
2023-01-05T08:44:16.573Z,10.40
2023-01-05T08:48:19.408Z,10.50
2023-01-05T08:52:23.303Z,10.50
2023-01-05T08:56:30.525Z,10.50
2023-01-05T09:00:36.028Z,10.40
2023-01-05T09:04:38.944Z,10.40
2023-01-05T09:08:42.579Z,10.40
2023-01-05T09:12:46.803Z,10.40
2023-01-05T09:17:06.517Z,10.40
2023-01-05T09:21:10.900Z,10.40
2023-01-05T09:25:13.808Z,10.40
2023-01-05T09:29:18.286Z,10.40
2023-01-05T09:33:21.668Z,10.40
2023-01-05T09:37:24.474Z,10.40
2023-01-05T09:41:30.489Z,10.30
2023-01-05T09:45:34.811Z,10.30
2023-01-05T09:49:37.972Z,10.30
2023-01-05T09:53:41.360Z,10.30
2023-01-05T09:57:45.816Z,10.30
2023-01-05T10:01:52.070Z,10.30
2023-01-05T10:05:55.078Z,10.20
2023-01-05T10:09:59.570Z,10.20
2023-01-05T10:14:04.367Z,10.20
2023-01-05T10:18:13.252Z,10.20
2023-01-05T10:22:24.836Z,10.20
2023-01-05T10:26:35.598Z,10.20
2023-01-05T10:30:56.808Z,10.20
2023-01-05T10:35:02.743Z,10.20
2023-01-05T10:39:11.682Z,10.20
2023-01-05T10:43:20.172Z,10.20
2023-01-05T10:47:24.031Z,10.30
2023-01-05T10:51:31.395Z,10.30
2023-01-05T10:55:38.323Z,10.30
2023-01-05T10:59:54.869Z,10.30
2023-01-05T11:04:28.861Z,10.40
2023-01-05T11:08:28.886Z,10.40
2023-01-05T11:12:31.817Z,10.50
2023-01-05T11:16:35.776Z,10.60
2023-01-05T11:20:38.603Z,10.70
2023-01-05T11:24:42.770Z,10.70
2023-01-05T11:28:57.999Z,10.80
2023-01-05T11:33:01.759Z,10.90
2023-01-05T11:37:08.342Z,10.90
2023-01-05T11:41:14.229Z,10.90
2023-01-05T11:45:21.772Z,10.90
2023-01-05T11:49:24.992Z,10.90
2023-01-05T11:53:37.270Z,11.00
2023-01-05T11:57:41.461Z,11.00
2023-01-05T12:01:54.716Z,11.00
2023-01-05T12:05:58.591Z,11.00
2023-01-05T12:10:06.229Z,11.00
2023-01-05T12:14:19.647Z,11.00
2023-01-05T12:18:30.573Z,11.00
2023-01-05T12:22:51.287Z,11.00
2023-01-05T12:27:01.281Z,11.00
2023-01-05T12:35:42.581Z,10.90
2023-01-05T12:39:53.993Z,10.90
2023-01-05T12:44:02.628Z,10.90
2023-01-05T12:48:08.653Z,10.90
2023-01-05T12:52:17.513Z,10.90
2023-01-05T12:56:26.374Z,10.90
2023-01-05T13:00:35.090Z,10.90
2023-01-05T13:04:48.448Z,10.90
2023-01-05T13:08:57.106Z,10.90
2023-01-05T13:13:05.088Z,10.90
2023-01-05T13:17:13.850Z,10.90
2023-01-05T13:21:20.118Z,10.80
2023-01-05T13:25:26.239Z,10.90
2023-01-05T13:29:35.878Z,10.90
2023-01-05T13:34:06.060Z,10.90
2023-01-05T13:38:32.637Z,10.90
2023-01-05T13:42:53.643Z,10.90
2023-01-05T13:47:17.556Z,10.90
2023-01-05T13:51:40.912Z,10.80
2023-01-05T13:55:52.420Z,10.80
2023-01-05T14:00:06.578Z,10.70
2023-01-05T14:04:19.885Z,10.70
2023-01-05T14:08:33.678Z,10.60
2023-01-05T14:12:54.144Z,10.60
2023-01-05T14:16:57.397Z,10.60
2023-01-05T14:21:11.873Z,10.60
2023-01-05T14:25:50.278Z,10.60
2023-01-05T14:30:27.539Z,10.50
2023-01-05T14:34:32.168Z,10.50
2023-01-05T14:38:35.556Z,10.50
2023-01-05T14:42:40.346Z,10.50
2023-01-05T14:46:46.433Z,10.50
2023-01-05T14:50:49.288Z,10.50
2023-01-05T14:55:27.051Z,10.50
2023-01-05T14:59:40.002Z,10.40
2023-01-05T15:03:48.473Z,10.40
2023-01-05T15:07:56.446Z,10.40
2023-01-05T15:12:05.896Z,10.40
2023-01-05T15:16:13.848Z,10.40
2023-01-05T15:25:03.614Z,10.40
2023-01-05T15:29:15.695Z,10.30
2023-01-05T15:33:25.833Z,10.30
2023-01-05T15:37:32.215Z,10.30
2023-01-05T15:41:36.580Z,10.30
2023-01-05T15:45:43.221Z,10.30
2023-01-05T15:49:46.891Z,10.30
2023-01-05T15:53:54.444Z,10.30
2023-01-05T15:58:00.205Z,10.30
2023-01-05T16:02:03.244Z,10.20
2023-01-05T16:06:07.980Z,10.20
2023-01-05T16:10:16.954Z,10.20
2023-01-05T16:14:24.882Z,10.20
2023-01-05T16:18:29.437Z,10.20
2023-01-05T16:22:36.136Z,10.20
2023-01-05T16:26:39.020Z,10.20
2023-01-05T16:30:43.476Z,10.10
2023-01-05T16:34:46.319Z,10.10
2023-01-05T16:38:49.597Z,10.10
2023-01-05T16:42:52.431Z,10.10
2023-01-05T16:47:06.125Z,10.10
2023-01-05T16:51:09.974Z,10.10
2023-01-05T16:55:27.623Z,10.00
2023-01-05T16:59:52.503Z,10.00
2023-01-05T17:03:56.677Z,10.00
2023-01-05T17:08:03.676Z,10.00
2023-01-05T17:12:06.923Z,10.00
2023-01-05T17:16:12.719Z,10.00
2023-01-05T17:20:17.325Z,9.90
2023-01-05T17:24:20.353Z,9.90
2023-01-05T17:28:24.607Z,9.90
2023-01-05T17:32:27.699Z,9.90
2023-01-05T17:36:33.569Z,9.90
2023-01-05T17:40:36.603Z,9.90
2023-01-05T17:44:39.484Z,9.90
2023-01-05T17:48:42.472Z,9.90
2023-01-05T17:52:46.810Z,9.90
2023-01-05T17:56:49.891Z,9.90
2023-01-05T18:00:52.875Z,9.90
2023-01-05T18:04:56.540Z,9.90
2023-01-05T18:09:01.020Z,9.90
2023-01-05T18:13:04.165Z,9.90
2023-01-05T18:17:07.357Z,9.90
2023-01-05T18:21:10.162Z,9.90
2023-01-05T18:25:14.491Z,9.90
2023-01-05T18:29:17.468Z,9.90
2023-01-05T18:33:20.296Z,9.90
2023-01-05T18:37:23.163Z,9.90
2023-01-05T18:41:28.040Z,9.90
2023-01-05T18:45:38.731Z,9.90
2023-01-05T18:49:42.174Z,9.90
2023-01-05T18:53:44.981Z,9.80
2023-01-05T18:57:49.133Z,9.80
2023-01-05T19:01:51.995Z,9.80
2023-01-05T19:05:54.850Z,9.70
2023-01-05T19:09:57.826Z,9.70
2023-01-05T19:14:02.913Z,9.70
2023-01-05T19:18:06.732Z,9.60
2023-01-05T19:22:09.564Z,9.60
2023-01-05T19:26:12.552Z,9.60
2023-01-05T19:30:19.996Z,9.60
2023-01-05T19:34:22.986Z,9.60
2023-01-05T19:38:25.861Z,9.50
2023-01-05T19:42:28.678Z,9.50
2023-01-05T19:46:35.029Z,9.60
2023-01-05T19:50:37.853Z,9.50
2023-01-05T19:54:40.706Z,9.50
2023-01-05T19:58:44.059Z,9.50
2023-01-05T20:02:48.275Z,9.50
2023-01-05T20:06:51.081Z,9.50
2023-01-05T20:10:56.752Z,9.40
2023-01-05T20:14:59.911Z,9.40
2023-01-05T20:19:05.637Z,9.40
2023-01-05T20:23:08.849Z,9.40
2023-01-05T20:27:12.504Z,9.40
2023-01-05T20:31:17.537Z,9.30
2023-01-05T20:35:22.243Z,9.30
2023-01-05T20:39:25.350Z,9.30
2023-01-05T20:43:28.263Z,9.30
2023-01-05T20:47:39.487Z,9.30
2023-01-05T20:51:50.912Z,9.30
2023-01-05T20:55:53.701Z,9.30
2023-01-05T20:59:56.763Z,9.30
2023-01-05T21:03:59.816Z,9.30
2023-01-05T21:08:04.272Z,9.30
2023-01-05T21:12:07.761Z,9.40
2023-01-05T21:16:14.819Z,9.40
2023-01-05T21:20:17.870Z,9.40
2023-01-05T21:24:22.389Z,9.50
2023-01-05T21:28:25.192Z,9.50
2023-01-05T21:32:28.002Z,9.50
2023-01-05T21:36:31.438Z,9.60
2023-01-05T21:40:37.428Z,9.60
2023-01-05T21:44:40.491Z,9.60
2023-01-05T21:48:43.314Z,9.60
2023-01-05T21:53:03.515Z,9.60
2023-01-05T21:57:07.673Z,9.70
2023-01-05T22:01:10.593Z,9.70
2023-01-05T22:05:13.606Z,9.70
2023-01-05T22:09:16.438Z,9.70
2023-01-05T22:13:20.569Z,9.70
2023-01-05T22:17:23.385Z,9.70
2023-01-05T22:21:26.220Z,9.80
2023-01-05T22:25:29.407Z,9.70
2023-01-05T22:29:33.746Z,9.70
2023-01-05T22:33:38.827Z,9.80
2023-01-05T22:37:41.623Z,9.80
2023-01-05T22:41:45.540Z,9.80
2023-01-05T22:45:49.718Z,9.80
2023-01-05T22:49:52.565Z,9.80
2023-01-05T22:53:55.947Z,9.80
2023-01-05T22:57:58.720Z,9.80
2023-01-05T23:02:02.892Z,9.80
2023-01-05T23:06:06.200Z,9.80
2023-01-05T23:10:10.310Z,9.80
2023-01-05T23:14:13.955Z,9.90
2023-01-05T23:18:18.087Z,9.90
2023-01-05T23:22:21.151Z,9.90
2023-01-05T23:26:25.782Z,9.90
2023-01-05T23:30:28.632Z,9.90
2023-01-05T23:34:33.077Z,10.00
2023-01-05T23:38:36.046Z,10.00
2023-01-05T23:42:46.185Z,10.00
2023-01-05T23:46:48.998Z,10.00
2023-01-05T23:50:54.495Z,10.00
2023-01-05T23:54:57.319Z,10.10
2023-01-05T23:59:02.750Z,10.10
